sensor_id;sensor_type;location;lat;lon;timestamp;pressure;altitude;pressure_sealevel;temperature;humidity
32761;BME280;19126;47.472;7.850;2023-02-16T00:02:15;97732.66;;;-1.34;96.98
32761;BME280;19126;47.472;7.850;2023-02-16T00:04:47;97732.66;;;-1.34;97.19
32761;BME280;19126;47.472;7.850;2023-02-16T00:07:20;97717.53;;;-1.41;95.65
32761;BME280;19126;47.472;7.850;2023-02-16T00:10:04;97734.63;;;-1.39;95.67
32761;BME280;19126;47.472;7.850;2023-02-16T00:15:32;97735.81;;;-1.46;96.65
32761;BME280;19126;47.472;7.850;2023-02-16T00:18:01;97729.06;;;-1.49;95.30
32761;BME280;19126;47.472;7.850;2023-02-16T00:20:30;97734.06;;;-1.45;94.06
32761;BME280;19126;47.472;7.850;2023-02-16T00:23:04;97738.09;;;-1.40;92.88
32761;BME280;19126;47.472;7.850;2023-02-16T00:25:42;97736.91;;;-1.33;92.17
32761;BME280;19126;47.472;7.850;2023-02-16T00:28:11;97739.28;;;-1.28;90.72
32761;BME280;19126;47.472;7.850;2023-02-16T00:30:42;97729.47;;;-1.39;91.54
32761;BME280;19126;47.472;7.850;2023-02-16T00:33:13;97740.97;;;-1.27;90.93
32761;BME280;19126;47.472;7.850;2023-02-16T00:35:43;97737.69;;;-1.30;91.30
32761;BME280;19126;47.472;7.850;2023-02-16T00:38:10;97741.03;;;-1.28;90.52
32761;BME280;19126;47.472;7.850;2023-02-16T00:40:39;97724.88;;;-1.32;88.85
32761;BME280;19126;47.472;7.850;2023-02-16T00:43:08;97731.81;;;-1.34;89.25
32761;BME280;19126;47.472;7.850;2023-02-16T00:45:36;97730.44;;;-1.41;90.62
32761;BME280;19126;47.472;7.850;2023-02-16T00:48:07;97728.84;;;-1.44;92.27
32761;BME280;19126;47.472;7.850;2023-02-16T00:50:37;97732.38;;;-1.47;92.82
32761;BME280;19126;47.472;7.850;2023-02-16T00:53:12;97718.06;;;-1.52;91.54
32761;BME280;19126;47.472;7.850;2023-02-16T00:55:46;97722.94;;;-1.46;90.86
32761;BME280;19126;47.472;7.850;2023-02-16T00:58:17;97724.50;;;-1.43;89.81
32761;BME280;19126;47.472;7.850;2023-02-16T01:00:51;97710.03;;;-1.46;88.94
32761;BME280;19126;47.472;7.850;2023-02-16T01:03:22;97716.25;;;-1.50;90.06
32761;BME280;19126;47.472;7.850;2023-02-16T01:05:55;97714.88;;;-1.57;90.54
32761;BME280;19126;47.472;7.850;2023-02-16T01:08:36;97719.13;;;-1.56;90.39
32761;BME280;19126;47.472;7.850;2023-02-16T01:11:36;97705.88;;;-1.68;90.96
32761;BME280;19126;47.472;7.850;2023-02-16T01:14:10;97722.78;;;-1.62;91.13
32761;BME280;19126;47.472;7.850;2023-02-16T01:16:47;97713.66;;;-1.69;89.77
32761;BME280;19126;47.472;7.850;2023-02-16T01:19:17;97714.53;;;-1.69;90.73
32761;BME280;19126;47.472;7.850;2023-02-16T01:21:44;97712.38;;;-1.78;91.83
32761;BME280;19126;47.472;7.850;2023-02-16T01:24:14;97716.66;;;-1.79;91.09
32761;BME280;19126;47.472;7.850;2023-02-16T01:26:51;97716.47;;;-1.74;90.21
32761;BME280;19126;47.472;7.850;2023-02-16T01:32:09;97721.34;;;-1.87;90.88
32761;BME280;19126;47.472;7.850;2023-02-16T01:34:43;97711.75;;;-1.83;89.25
32761;BME280;19126;47.472;7.850;2023-02-16T01:37:14;97703.53;;;-1.92;88.79
32761;BME280;19126;47.472;7.850;2023-02-16T01:39:44;97709.59;;;-1.93;89.98
32761;BME280;19126;47.472;7.850;2023-02-16T01:42:22;97708.81;;;-1.95;89.82
32761;BME280;19126;47.472;7.850;2023-02-16T01:44:57;97695.31;;;-2.00;89.22
32761;BME280;19126;47.472;7.850;2023-02-16T01:47:36;97698.72;;;-1.99;88.55
32761;BME280;19126;47.472;7.850;2023-02-16T01:50:15;97702.06;;;-1.97;87.90
32761;BME280;19126;47.472;7.850;2023-02-16T01:55:34;97707.16;;;-1.96;87.42
32761;BME280;19126;47.472;7.850;2023-02-16T01:58:10;97702.13;;;-1.99;87.35
32761;BME280;19126;47.472;7.850;2023-02-16T04:00:48;97701.84;;;-2.72;83.01
32761;BME280;19126;47.472;7.850;2023-02-16T04:03:16;97706.03;;;-2.70;82.47
32761;BME280;19126;47.472;7.850;2023-02-16T04:05:43;97706.72;;;-2.66;81.60
32761;BME280;19126;47.472;7.850;2023-02-16T04:10:46;97703.63;;;-2.74;81.70
32761;BME280;19126;47.472;7.850;2023-02-16T04:13:13;97700.16;;;-2.73;80.92
32761;BME280;19126;47.472;7.850;2023-02-16T04:15:39;97701.97;;;-2.75;80.50
32761;BME280;19126;47.472;7.850;2023-02-16T04:18:08;97697.84;;;-2.80;80.63
32761;BME280;19126;47.472;7.850;2023-02-16T04:20:35;97703.25;;;-2.86;80.87
32761;BME280;19126;47.472;7.850;2023-02-16T04:23:02;97705.00;;;-2.86;81.23
32761;BME280;19126;47.472;7.850;2023-02-16T04:25:30;97708.50;;;-2.89;81.80
32761;BME280;19126;47.472;7.850;2023-02-16T04:27:58;97709.38;;;-2.88;81.10
32761;BME280;19126;47.472;7.850;2023-02-16T04:30:27;97710.13;;;-2.86;80.21
32761;BME280;19126;47.472;7.850;2023-02-16T04:32:55;97712.88;;;-2.91;80.48
32761;BME280;19126;47.472;7.850;2023-02-16T04:35:24;97705.41;;;-2.97;81.03
32761;BME280;19126;47.472;7.850;2023-02-16T04:37:52;97706.41;;;-3.00;81.80
32761;BME280;19126;47.472;7.850;2023-02-16T04:40:19;97694.63;;;-3.05;81.35
32761;BME280;19126;47.472;7.850;2023-02-16T04:42:46;97701.31;;;-3.01;81.50
32761;BME280;19126;47.472;7.850;2023-02-16T04:45:13;97695.22;;;-2.99;80.46
32761;BME280;19126;47.472;7.850;2023-02-16T04:47:41;97700.22;;;-2.96;79.05
32761;BME280;19126;47.472;7.850;2023-02-16T04:50:08;97696.16;;;-3.01;79.31
32761;BME280;19126;47.472;7.850;2023-02-16T04:52:37;97696.16;;;-3.01;80.03
32761;BME280;19126;47.472;7.850;2023-02-16T04:55:06;97700.53;;;-3.03;80.30
32761;BME280;19126;47.472;7.850;2023-02-16T04:57:35;97710.03;;;-3.05;79.98
32761;BME280;19126;47.472;7.850;2023-02-16T05:00:06;97710.03;;;-3.05;80.05
32761;BME280;19126;47.472;7.850;2023-02-16T05:02:35;97701.38;;;-3.03;79.19
32761;BME280;19126;47.472;7.850;2023-02-16T05:05:02;97704.59;;;-2.98;78.53
32761;BME280;19126;47.472;7.850;2023-02-16T05:07:37;97699.47;;;-2.98;77.36
32761;BME280;19126;47.472;7.850;2023-02-16T05:10:09;97703.09;;;-3.03;79.23
32761;BME280;19126;47.472;7.850;2023-02-16T05:12:37;97704.00;;;-3.04;79.53
32761;BME280;19126;47.472;7.850;2023-02-16T05:15:21;97703.09;;;-3.03;79.42
32761;BME280;19126;47.472;7.850;2023-02-16T05:17:48;97696.03;;;-2.98;78.36
32761;BME280;19126;47.472;7.850;2023-02-16T05:20:16;97699.25;;;-2.93;77.48
32761;BME280;19126;47.472;7.850;2023-02-16T05:30:31;97710.81;;;-3.03;77.72
32761;BME280;19126;47.472;7.850;2023-02-16T05:32:58;97715.19;;;-3.05;78.21
32761;BME280;19126;47.472;7.850;2023-02-16T05:35:25;97719.41;;;-3.04;77.94
32761;BME280;19126;47.472;7.850;2023-02-16T05:37:52;97713.59;;;-3.08;77.53
32761;BME280;19126;47.472;7.850;2023-02-16T05:40:20;97713.97;;;-3.17;78.73
32761;BME280;19126;47.472;7.850;2023-02-16T05:42:51;97714.13;;;-3.22;79.21
32761;BME280;19126;47.472;7.850;2023-02-16T05:45:18;97710.91;;;-3.27;79.99
32761;BME280;19126;47.472;7.850;2023-02-16T05:47:46;97712.66;;;-3.28;79.78
32761;BME280;19126;47.472;7.850;2023-02-16T05:50:13;97712.66;;;-3.28;80.33
32761;BME280;19126;47.472;7.850;2023-02-16T05:52:40;97711.75;;;-3.27;79.49
32761;BME280;19126;47.472;7.850;2023-02-16T05:55:08;97712.69;;;-3.29;79.39
32761;BME280;19126;47.472;7.850;2023-02-16T05:57:35;97707.44;;;-3.26;79.12
32761;BME280;19126;47.472;7.850;2023-02-16T06:00:03;97717.59;;;-3.23;78.92
32761;BME280;19126;47.472;7.850;2023-02-16T06:02:31;97711.56;;;-3.22;79.18
32761;BME280;19126;47.472;7.850;2023-02-16T06:04:59;97720.03;;;-3.20;78.65
32761;BME280;19126;47.472;7.850;2023-02-16T06:07:26;97717.59;;;-3.23;78.62
32761;BME280;19126;47.472;7.850;2023-02-16T06:09:53;97726.94;;;-3.20;78.71
32761;BME280;19126;47.472;7.850;2023-02-16T06:12:20;97721.72;;;-3.19;78.07
32761;BME280;19126;47.472;7.850;2023-02-16T06:14:47;97725.13;;;-3.18;77.30
32761;BME280;19126;47.472;7.850;2023-02-16T06:17:14;97726.19;;;-3.24;77.74
32761;BME280;19126;47.472;7.850;2023-02-16T06:19:45;97729.75;;;-3.27;78.60
32761;BME280;19126;47.472;7.850;2023-02-16T06:22:14;97739.91;;;-3.24;77.81
32761;BME280;19126;47.472;7.850;2023-02-16T06:24:41;97731.56;;;-3.30;78.63
32761;BME280;19126;47.472;7.850;2023-02-16T06:27:09;97741.03;;;-3.31;78.54
32761;BME280;19126;47.472;7.850;2023-02-16T06:29:36;97744.38;;;-3.29;78.26
32761;BME280;19126;47.472;7.850;2023-02-16T06:32:03;97743.47;;;-3.28;77.68
32761;BME280;19126;47.472;7.850;2023-02-16T06:34:30;97753.03;;;-3.31;77.87
32761;BME280;19126;47.472;7.850;2023-02-16T06:36:58;97742.09;;;-3.36;78.09
32761;BME280;19126;47.472;7.850;2023-02-16T06:39:26;97746.28;;;-3.34;78.70
32761;BME280;19126;47.472;7.850;2023-02-16T06:41:54;97742.94;;;-3.36;78.27
32761;BME280;19126;47.472;7.850;2023-02-16T06:44:21;97743.84;;;-3.37;78.77
32761;BME280;19126;47.472;7.850;2023-02-16T06:46:48;97752.44;;;-3.38;79.02
32761;BME280;19126;47.472;7.850;2023-02-16T06:49:16;97742.59;;;-3.27;78.47
32761;BME280;19126;47.472;7.850;2023-02-16T06:51:44;97756.66;;;-3.15;76.96
32761;BME280;19126;47.472;7.850;2023-02-16T06:54:13;97752.13;;;-3.08;76.04
32761;BME280;19126;47.472;7.850;2023-02-16T06:56:42;97746.91;;;-3.06;76.26
32761;BME280;19126;47.472;7.850;2023-02-16T06:59:12;97748.59;;;-3.05;76.53
32761;BME280;19126;47.472;7.850;2023-02-16T07:01:39;97747.94;;;-3.11;76.99
32761;BME280;19126;47.472;7.850;2023-02-16T07:04:09;97754.63;;;-3.06;76.84
32761;BME280;19126;47.472;7.850;2023-02-16T07:06:36;97756.44;;;-3.09;77.24
32761;BME280;19126;47.472;7.850;2023-02-16T07:09:03;97761.44;;;-3.05;77.74
32761;BME280;19126;47.472;7.850;2023-02-16T07:11:30;97755.72;;;-3.12;78.31
32761;BME280;19126;47.472;7.850;2023-02-16T07:13:58;97759.97;;;-3.11;78.93
32761;BME280;19126;47.472;7.850;2023-02-16T07:16:26;97764.25;;;-3.12;79.12
32761;BME280;19126;47.472;7.850;2023-02-16T07:18:53;97759.84;;;-3.08;78.40
32761;BME280;19126;47.472;7.850;2023-02-16T07:21:20;97764.31;;;-2.91;77.38
32761;BME280;19126;47.472;7.850;2023-02-16T07:23:47;97761.59;;;-2.45;74.17
32761;BME280;19126;47.472;7.850;2023-02-16T07:26:14;97767.28;;;-1.97;71.73
32761;BME280;19126;47.472;7.850;2023-02-16T07:28:41;97766.22;;;-1.16;68.50
32761;BME280;19126;47.472;7.850;2023-02-16T07:31:14;97758.88;;;0.65;66.41
32761;BME280;19126;47.472;7.850;2023-02-16T07:33:42;97767.03;;;4.02;92.95
32761;BME280;19126;47.472;7.850;2023-02-16T07:41:20;97780.34;;;4.61;100.00
32761;BME280;19126;47.472;7.850;2023-02-16T07:43:48;97780.13;;;4.01;100.00
32761;BME280;19126;47.472;7.850;2023-02-16T07:46:16;97777.38;;;3.76;100.00
32761;BME280;19126;47.472;7.850;2023-02-16T07:48:46;97779.91;;;3.78;100.00
32761;BME280;19126;47.472;7.850;2023-02-16T07:51:22;97775.09;;;3.85;100.00
32761;BME280;19126;47.472;7.850;2023-02-16T07:53:51;97776.66;;;3.74;100.00
32761;BME280;19126;47.472;7.850;2023-02-16T07:56:19;97777.72;;;3.98;100.00
32761;BME280;19126;47.472;7.850;2023-02-16T07:58:47;97774.81;;;3.36;99.39
32761;BME280;19126;47.472;7.850;2023-02-16T08:01:15;97782.78;;;3.73;100.00
32761;BME280;19126;47.472;7.850;2023-02-16T08:03:43;97785.91;;;3.65;100.00
32761;BME280;19126;47.472;7.850;2023-02-16T08:06:12;97790.13;;;3.13;100.00
32761;BME280;19126;47.472;7.850;2023-02-16T08:08:39;97788.66;;;3.36;100.00
32761;BME280;19126;47.472;7.850;2023-02-16T08:11:08;97783.03;;;3.83;100.00
32761;BME280;19126;47.472;7.850;2023-02-16T08:13:35;97783.25;;;4.19;100.00
32761;BME280;19126;47.472;7.850;2023-02-16T08:16:06;97786.91;;;4.03;100.00
32761;BME280;19126;47.472;7.850;2023-02-16T08:18:35;97784.56;;;3.86;98.77
32761;BME280;19126;47.472;7.850;2023-02-16T08:21:07;97778.66;;;3.96;99.59
32761;BME280;19126;47.472;7.850;2023-02-16T08:23:39;97787.59;;;4.18;99.12
32761;BME280;19126;47.472;7.850;2023-02-16T08:26:09;97781.38;;;4.21;99.45
32761;BME280;19126;47.472;7.850;2023-02-16T08:28:36;97785.41;;;4.75;99.71
32761;BME280;19126;47.472;7.850;2023-02-16T08:31:04;97783.22;;;4.45;97.22
32761;BME280;19126;47.472;7.850;2023-02-16T08:33:32;97787.22;;;4.62;97.32
32761;BME280;19126;47.472;7.850;2023-02-16T08:36:01;97791.34;;;4.77;95.82
32761;BME280;19126;47.472;7.850;2023-02-16T08:38:28;97790.69;;;4.62;96.62
32761;BME280;19126;47.472;7.850;2023-02-16T08:40:57;97781.44;;;4.82;97.69
32761;BME280;19126;47.472;7.850;2023-02-16T08:43:25;97797.13;;;5.31;95.34
32761;BME280;19126;47.472;7.850;2023-02-16T08:45:52;97790.84;;;5.34;93.76
32761;BME280;19126;47.472;7.850;2023-02-16T08:48:20;97801.63;;;5.76;91.72
32761;BME280;19126;47.472;7.850;2023-02-16T08:50:47;97799.50;;;6.17;90.06
32761;BME280;19126;47.472;7.850;2023-02-16T08:53:20;97792.75;;;6.26;86.58
32761;BME280;19126;47.472;7.850;2023-02-16T08:58:18;97786.00;;;6.57;83.76
32761;BME280;19126;47.472;7.850;2023-02-16T09:00:46;97787.41;;;6.62;83.51
32761;BME280;19126;47.472;7.850;2023-02-16T09:03:14;97792.50;;;6.74;83.05
32761;BME280;19126;47.472;7.850;2023-02-16T09:05:43;97787.50;;;6.83;83.21
32761;BME280;19126;47.472;7.850;2023-02-16T09:08:11;97788.50;;;7.14;82.64
32761;BME280;19126;47.472;7.850;2023-02-16T09:10:40;97783.94;;;7.28;81.77
32761;BME280;19126;47.472;7.850;2023-02-16T09:13:10;97787.59;;;7.58;80.58
32761;BME280;19126;47.472;7.850;2023-02-16T09:15:39;97790.25;;;7.79;80.20
32761;BME280;19126;47.472;7.850;2023-02-16T09:18:08;97788.78;;;7.86;80.14
32761;BME280;19126;47.472;7.850;2023-02-16T09:20:38;97791.75;;;8.24;80.81
32761;BME280;19126;47.472;7.850;2023-02-16T09:23:09;97794.78;;;7.98;79.03
32761;BME280;19126;47.472;7.850;2023-02-16T09:25:39;97795.41;;;8.12;76.89
32761;BME280;19126;47.472;7.850;2023-02-16T09:28:10;97785.66;;;8.45;74.56
32761;BME280;19126;47.472;7.850;2023-02-16T09:30:39;97783.34;;;8.52;73.98
32761;BME280;19126;47.472;7.850;2023-02-16T09:33:12;97794.75;;;8.82;71.94
32761;BME280;19126;47.472;7.850;2023-02-16T09:35:46;97786.59;;;8.75;71.49
32761;BME280;19126;47.472;7.850;2023-02-16T09:38:20;97790.72;;;8.68;70.83
32761;BME280;19126;47.472;7.850;2023-02-16T09:41:20;97783.22;;;9.14;71.07
32761;BME280;19126;47.472;7.850;2023-02-16T09:44:01;97796.78;;;9.38;68.90
32761;BME280;19126;47.472;7.850;2023-02-16T09:46:33;97795.53;;;9.72;68.46
32761;BME280;19126;47.472;7.850;2023-02-16T09:49:03;97791.34;;;9.99;67.23
32761;BME280;19126;47.472;7.850;2023-02-16T09:51:35;97799.00;;;10.30;68.32
32761;BME280;19126;47.472;7.850;2023-02-16T09:54:12;97779.06;;;10.37;67.16
32761;BME280;19126;47.472;7.850;2023-02-16T09:56:51;97785.75;;;10.69;66.12
32761;BME280;19126;47.472;7.850;2023-02-16T09:59:34;97767.44;;;11.06;66.12
32761;BME280;19126;47.472;7.850;2023-02-16T10:02:21;97765.00;;;11.12;63.60
32761;BME280;19126;47.472;7.850;2023-02-16T10:05:09;97786.22;;;11.47;64.05
32761;BME280;19126;47.472;7.850;2023-02-16T10:08:04;97771.78;;;11.51;62.12
32761;BME280;19126;47.472;7.850;2023-02-16T10:10:41;97767.44;;;11.86;64.45
32761;BME280;19126;47.472;7.850;2023-02-16T10:13:19;97773.91;;;12.10;59.63
32761;BME280;19126;47.472;7.850;2023-02-16T10:15:50;97780.31;;;12.77;61.21
32761;BME280;19126;47.472;7.850;2023-02-16T10:18:26;97770.69;;;13.19;57.55
32761;BME280;19126;47.472;7.850;2023-02-16T10:20:57;97769.78;;;13.45;56.66
32761;BME280;19126;47.472;7.850;2023-02-16T10:23:32;97781.00;;;13.47;54.67
32761;BME280;19126;47.472;7.850;2023-02-16T10:26:06;97756.41;;;13.80;52.47
32761;BME280;19126;47.472;7.850;2023-02-16T10:28:43;97774.09;;;13.71;51.09
32761;BME280;19126;47.472;7.850;2023-02-16T10:31:22;97774.91;;;13.63;51.02
32761;BME280;19126;47.472;7.850;2023-02-16T10:34:04;97761.03;;;13.61;51.86
32761;BME280;19126;47.472;7.850;2023-02-16T10:39:28;97769.69;;;13.20;48.89
32761;BME280;19126;47.472;7.850;2023-02-16T10:42:06;97768.03;;;13.19;50.31
32761;BME280;19126;47.472;7.850;2023-02-16T10:44:44;97769.47;;;13.48;49.45
32761;BME280;19126;47.472;7.850;2023-02-16T10:47:26;97768.78;;;13.46;48.49
32761;BME280;19126;47.472;7.850;2023-02-16T10:50:03;97764.84;;;13.42;46.89
32761;BME280;19126;47.472;7.850;2023-02-16T10:52:36;97769.78;;;13.78;47.96
32761;BME280;19126;47.472;7.850;2023-02-16T10:55:07;97768.28;;;13.84;46.42
32761;BME280;19126;47.472;7.850;2023-02-16T10:57:36;97763.34;;;13.47;45.39
32761;BME280;19126;47.472;7.850;2023-02-16T11:00:11;97748.00;;;13.43;45.17
32761;BME280;19126;47.472;7.850;2023-02-16T11:02:51;97752.63;;;13.74;44.89
32761;BME280;19126;47.472;7.850;2023-02-16T11:05:52;97750.97;;;13.81;45.50
32761;BME280;19126;47.472;7.850;2023-02-16T11:08:20;97755.66;;;14.19;47.34
32761;BME280;19126;47.472;7.850;2023-02-16T11:10:51;97745.25;;;14.26;45.67
32761;BME280;19126;47.472;7.850;2023-02-16T11:13:24;97749.09;;;13.98;43.92
32761;BME280;19126;47.472;7.850;2023-02-16T11:15:57;97739.97;;;14.26;44.59
32761;BME280;19126;47.472;7.850;2023-02-16T11:18:39;97721.88;;;14.46;45.17
32761;BME280;19126;47.472;7.850;2023-02-16T11:21:09;97728.34;;;14.43;45.25
32761;BME280;19126;47.472;7.850;2023-02-16T11:23:38;97734.41;;;14.52;44.15
32761;BME280;19126;47.472;7.850;2023-02-16T11:26:25;97736.09;;;14.45;45.55
32761;BME280;19126;47.472;7.850;2023-02-16T11:29:06;97712.03;;;14.31;46.80
32761;BME280;19126;47.472;7.850;2023-02-16T11:31:45;97719.47;;;14.36;45.78
32761;BME280;19126;47.472;7.850;2023-02-16T11:34:14;97718.16;;;14.32;46.72
32761;BME280;19126;47.472;7.850;2023-02-16T11:36:47;97722.22;;;14.43;46.80
32761;BME280;19126;47.472;7.850;2023-02-16T11:39:18;97714.69;;;14.23;45.90
32761;BME280;19126;47.472;7.850;2023-02-16T11:41:48;97711.03;;;14.32;46.32
32761;BME280;19126;47.472;7.850;2023-02-16T11:44:25;97714.81;;;14.38;49.16
32761;BME280;19126;47.472;7.850;2023-02-16T11:46:57;97709.03;;;14.34;49.31
32761;BME280;19126;47.472;7.850;2023-02-16T11:49:40;97705.81;;;14.07;48.22
32761;BME280;19126;47.472;7.850;2023-02-16T11:52:23;97697.75;;;14.09;50.48
32761;BME280;19126;47.472;7.850;2023-02-16T11:54:54;97695.91;;;14.10;50.56
32761;BME280;19126;47.472;7.850;2023-02-16T11:57:24;97690.31;;;14.04;50.13
32761;BME280;19126;47.472;7.850;2023-02-16T11:59:53;97697.25;;;14.05;50.68
32761;BME280;19126;47.472;7.850;2023-02-16T12:02:39;97702.09;;;13.94;51.14
32761;BME280;19126;47.472;7.850;2023-02-16T12:05:24;97706.53;;;13.93;50.36
32761;BME280;19126;47.472;7.850;2023-02-16T12:08:08;97711.00;;;13.92;50.69
32761;BME280;19126;47.472;7.850;2023-02-16T12:10:44;97699.78;;;13.82;50.16
32761;BME280;19126;47.472;7.850;2023-02-16T12:13:24;97686.28;;;13.69;49.44
32761;BME280;19126;47.472;7.850;2023-02-16T12:16:00;97694.19;;;13.77;49.93
32761;BME280;19126;47.472;7.850;2023-02-16T12:18:42;97676.22;;;13.56;47.88
32761;BME280;19126;47.472;7.850;2023-02-16T12:21:22;97689.91;;;13.68;47.62
32761;BME280;19126;47.472;7.850;2023-02-16T12:23:59;97665.53;;;13.49;49.49
32761;BME280;19126;47.472;7.850;2023-02-16T12:26:39;97677.88;;;13.57;49.58
32761;BME280;19126;47.472;7.850;2023-02-16T12:29:15;97669.78;;;13.67;49.26
32761;BME280;19126;47.472;7.850;2023-02-16T12:31:54;97677.84;;;13.65;50.17
32761;BME280;19126;47.472;7.850;2023-02-16T12:34:32;97667.19;;;13.42;49.30
32761;BME280;19126;47.472;7.850;2023-02-16T12:37:05;97675.09;;;13.50;49.45
32761;BME280;19126;47.472;7.850;2023-02-16T12:39:36;97669.94;;;13.40;50.10
32761;BME280;19126;47.472;7.850;2023-02-16T12:42:26;97673.25;;;13.34;50.75
32761;BME280;19126;47.472;7.850;2023-02-16T12:45:09;97654.94;;;13.24;51.88
32761;BME280;19126;47.472;7.850;2023-02-16T12:47:44;97666.16;;;13.26;51.65
32761;BME280;19126;47.472;7.850;2023-02-16T12:50:21;97668.97;;;13.25;51.07
32761;BME280;19126;47.472;7.850;2023-02-16T12:52:53;97649.00;;;13.14;51.66
32761;BME280;19126;47.472;7.850;2023-02-16T12:55:26;97659.06;;;13.27;51.92
32761;BME280;19126;47.472;7.850;2023-02-16T12:58:00;97645.69;;;13.20;51.21
32761;BME280;19126;47.472;7.850;2023-02-16T13:00:38;97650.97;;;13.12;49.58
32761;BME280;19126;47.472;7.850;2023-02-16T13:03:21;97646.69;;;13.19;51.46
32761;BME280;19126;47.472;7.850;2023-02-16T13:05:58;97643.72;;;13.39;51.28
32761;BME280;19126;47.472;7.850;2023-02-16T13:08:32;97640.44;;;13.45;49.91
32761;BME280;19126;47.472;7.850;2023-02-16T13:11:10;97634.97;;;13.63;50.26
32761;BME280;19126;47.472;7.850;2023-02-16T13:13:39;97627.19;;;13.78;49.40
32761;BME280;19126;47.472;7.850;2023-02-16T13:16:12;97632.56;;;13.93;48.48
32761;BME280;19126;47.472;7.850;2023-02-16T13:18:42;97630.19;;;14.06;50.16
32761;BME280;19126;47.472;7.850;2023-02-16T13:21:13;97625.38;;;14.18;50.42
32761;BME280;19126;47.472;7.850;2023-02-16T13:23:54;97628.97;;;14.26;49.28
32761;BME280;19126;47.472;7.850;2023-02-16T13:29:55;97626.69;;;14.23;47.97
32761;BME280;19126;47.472;7.850;2023-02-16T13:32:49;97623.72;;;14.17;47.18
32761;BME280;19126;47.472;7.850;2023-02-16T13:35:37;97620.84;;;14.27;47.24
32761;BME280;19126;47.472;7.850;2023-02-16T13:38:20;97622.16;;;14.31;48.21
32761;BME280;19126;47.472;7.850;2023-02-16T13:41:12;97632.44;;;14.26;49.58
32761;BME280;19126;47.472;7.850;2023-02-16T13:43:48;97611.13;;;14.28;48.15
32761;BME280;19126;47.472;7.850;2023-02-16T13:46:21;97619.00;;;14.36;48.68
32761;BME280;19126;47.472;7.850;2023-02-16T13:48:55;97612.94;;;14.27;48.70
32761;BME280;19126;47.472;7.850;2023-02-16T13:51:23;97617.19;;;14.36;49.07
32761;BME280;19126;47.472;7.850;2023-02-16T13:53:54;97620.84;;;14.27;46.89
32761;BME280;19126;47.472;7.850;2023-02-16T13:56:32;97618.97;;;14.04;45.04
32761;BME280;19126;47.472;7.850;2023-02-16T14:05:25;97609.78;;;13.92;45.86
32761;BME280;19126;47.472;7.850;2023-02-16T14:08:22;97608.41;;;14.04;46.16
32761;BME280;19126;47.472;7.850;2023-02-16T14:11:08;97599.53;;;13.97;45.34
32761;BME280;19126;47.472;7.850;2023-02-16T14:13:49;97602.69;;;13.92;47.99
32761;BME280;19126;47.472;7.850;2023-02-16T14:16:35;97594.66;;;13.77;48.27
32761;BME280;19126;47.472;7.850;2023-02-16T14:19:04;97605.25;;;13.69;47.71
32761;BME280;19126;47.472;7.850;2023-02-16T14:21:43;97605.44;;;13.59;51.11
32761;BME280;19126;47.472;7.850;2023-02-16T14:24:12;97614.69;;;13.39;50.01
32761;BME280;19126;47.472;7.850;2023-02-16T14:26:53;97607.78;;;13.29;51.75
32761;BME280;19126;47.472;7.850;2023-02-16T14:29:21;97610.75;;;13.18;51.77
32761;BME280;19126;47.472;7.850;2023-02-16T14:31:52;97609.75;;;13.19;51.73
32761;BME280;19126;47.472;7.850;2023-02-16T14:34:26;97599.06;;;13.12;52.21
32761;BME280;19126;47.472;7.850;2023-02-16T14:37:28;97605.47;;;13.18;52.66
32761;BME280;19126;47.472;7.850;2023-02-16T14:40:12;97599.53;;;13.16;52.44
32761;BME280;19126;47.472;7.850;2023-02-16T14:42:51;97603.97;;;13.24;51.82
32761;BME280;19126;47.472;7.850;2023-02-16T14:45:36;97593.59;;;13.22;52.38
32761;BME280;19126;47.472;7.850;2023-02-16T14:48:14;97600.34;;;13.25;52.29
32761;BME280;19126;47.472;7.850;2023-02-16T14:50:52;97605.63;;;13.33;52.32
32761;BME280;19126;47.472;7.850;2023-02-16T14:53:56;97597.88;;;13.15;53.18
32761;BME280;19126;47.472;7.850;2023-02-16T14:56:36;97594.25;;;13.08;52.71
32761;BME280;19126;47.472;7.850;2023-02-16T14:59:11;97602.81;;;13.10;53.65
32761;BME280;19126;47.472;7.850;2023-02-16T15:01:44;97595.25;;;13.07;53.68
32761;BME280;19126;47.472;7.850;2023-02-16T15:04:11;97599.53;;;13.08;53.29
32761;BME280;19126;47.472;7.850;2023-02-16T15:06:40;97585.69;;;12.97;52.78
32761;BME280;19126;47.472;7.850;2023-02-16T15:09:14;97599.53;;;12.99;54.02
32761;BME280;19126;47.472;7.850;2023-02-16T15:11:46;97600.19;;;12.85;54.60
32761;BME280;19126;47.472;7.850;2023-02-16T15:14:36;97603.47;;;12.70;56.55
32761;BME280;19126;47.472;7.850;2023-02-16T15:17:07;97602.34;;;12.65;56.48
32761;BME280;19126;47.472;7.850;2023-02-16T15:19:34;97611.88;;;12.57;55.04
32761;BME280;19126;47.472;7.850;2023-02-16T15:22:10;97614.81;;;12.46;55.90
32761;BME280;19126;47.472;7.850;2023-02-16T15:24:37;97622.53;;;12.39;56.77
32761;BME280;19126;47.472;7.850;2023-02-16T15:27:04;97615.91;;;12.27;56.68
32761;BME280;19126;47.472;7.850;2023-02-16T15:29:31;97621.81;;;12.21;55.60
32761;BME280;19126;47.472;7.850;2023-02-16T15:32:04;97623.13;;;12.16;56.42
32761;BME280;19126;47.472;7.850;2023-02-16T15:34:33;97628.84;;;12.04;56.99
32761;BME280;19126;47.472;7.850;2023-02-16T15:37:01;97616.44;;;11.96;58.97
32761;BME280;19126;47.472;7.850;2023-02-16T15:39:45;97619.38;;;11.93;58.24
32761;BME280;19126;47.472;7.850;2023-02-16T15:42:18;97616.22;;;11.89;57.63
32761;BME280;19126;47.472;7.850;2023-02-16T15:44:46;97614.09;;;11.84;59.42
32761;BME280;19126;47.472;7.850;2023-02-16T15:47:19;97614.03;;;11.76;60.67
32761;BME280;19126;47.472;7.850;2023-02-16T15:49:47;97609.88;;;11.65;61.08
32761;BME280;19126;47.472;7.850;2023-02-16T15:52:16;97614.16;;;11.66;61.42
32761;BME280;19126;47.472;7.850;2023-02-16T15:54:44;97601.25;;;11.55;60.46
32761;BME280;19126;47.472;7.850;2023-02-16T15:57:17;97612.41;;;11.49;61.60
32761;BME280;19126;47.472;7.850;2023-02-16T15:59:47;97604.31;;;11.42;61.82
32761;BME280;19126;47.472;7.850;2023-02-16T16:02:17;97603.78;;;11.38;59.50
32761;BME280;19126;47.472;7.850;2023-02-16T16:04:46;97606.38;;;11.30;60.83
32761;BME280;19126;47.472;7.850;2023-02-16T16:07:16;97605.34;;;11.23;61.69
32761;BME280;19126;47.472;7.850;2023-02-16T16:09:45;97602.28;;;11.09;62.71
32761;BME280;19126;47.472;7.850;2023-02-16T16:12:15;97603.06;;;11.02;62.82